Time;durP1;ratioP1;P1;durP2;ratioP2;P2;SDS_P1;SDS_P2;PMS_P1;PMS_P2;Temp;Humidity;BMP_temperature;BMP_pressure;BME280_temperature;BME280_humidity;BME280_pressure;Samples;Min_cycle;Max_cycle;Signal;HPM_P1;HPM_P2
2022/12/20 00:00:43;;;;;;;14.80;7.25;;;;;;;-144.47;84.90;64776.03;4990091;28;20074;-68
2022/12/20 00:03:09;;;;;;;20.40;9.23;;;;;;;-144.47;84.43;64760.09;4989515;28;20126;-69
2022/12/20 00:05:39;;;;;;;24.08;8.80;;;;;;;-144.47;83.92;64791.97;4988857;28;20030;-65
2022/12/20 00:08:05;;;;;;;14.80;7.38;;;;;;;-144.47;83.07;64718.25;4988951;28;20022;-67
2022/12/20 00:10:35;;;;;;;17.85;8.10;;;;;;;-144.47;82.87;64702.28;4988783;28;20463;-69
2022/12/20 00:13:00;;;;;;;19.60;7.75;;;;;;;-144.47;82.72;64694.31;4990598;28;20121;-69
2022/12/20 00:15:26;;;;;;;16.83;7.78;;;;;;;-144.47;82.41;64710.28;4993396;28;20057;-66
2022/12/20 00:17:51;;;;;;;15.43;7.50;;;;;;;-144.47;82.14;64682.38;4992283;28;20022;-68
2022/12/20 00:20:16;;;;;;;20.20;8.63;;;;;;;-144.47;82.23;64704.28;4992659;28;20022;-68
2022/12/20 00:22:42;;;;;;;17.23;8.35;;;;;;;-144.47;82.45;64732.19;4993378;28;20030;-68
2022/12/20 00:25:07;;;;;;;19.85;8.70;;;;;;;-144.47;82.30;64680.38;4992267;28;20461;-68
2022/12/20 00:27:32;;;;;;;19.27;8.68;;;;;;;-144.47;82.29;64698.31;4981662;28;20436;-67
2022/12/20 00:29:58;;;;;;;16.80;7.75;;;;;;;-144.47;82.12;64694.31;4983673;28;20488;-69
2022/12/20 00:32:23;;;;;;;19.65;8.43;;;;;;;-144.47;81.55;64694.31;4993049;28;20026;-68
2022/12/20 00:34:48;;;;;;;20.63;9.25;;;;;;;-144.47;81.73;64698.31;4990619;28;20030;-67
2022/12/20 00:37:14;;;;;;;20.25;8.48;;;;;;;-144.47;81.75;64696.31;4991863;28;20040;-64
2022/12/20 00:39:39;;;;;;;18.52;8.50;;;;;;;-144.47;82.02;64654.47;4986132;28;20400;-67
2022/12/20 00:42:05;;;;;;;22.60;9.05;;;;;;;-144.47;82.64;64688.34;4991546;28;20519;-66
2022/12/20 00:44:30;;;;;;;19.30;8.68;;;;;;;-144.47;82.51;64706.28;4990822;28;20374;-66
2022/12/20 00:46:55;;;;;;;18.67;8.32;;;;;;;-144.47;82.51;64682.38;4991968;28;20054;-70
2022/12/20 00:49:21;;;;;;;23.77;8.98;;;;;;;-144.47;82.84;64696.31;4991700;28;20065;-67
2022/12/20 00:51:46;;;;;;;17.50;8.48;;;;;;;-144.47;82.84;64704.28;4992677;28;20507;-67
2022/12/20 00:54:11;;;;;;;20.58;9.07;;;;;;;-144.47;83.09;64706.28;4991655;28;20066;-68
2022/12/20 00:56:37;;;;;;;19.35;8.68;;;;;;;-144.47;83.20;64702.28;4991931;28;20030;-67
2022/12/20 00:59:02;;;;;;;19.60;8.88;;;;;;;-144.47;83.42;64734.19;4991262;28;20037;-68
2022/12/20 01:01:31;;;;;;;23.85;8.68;;;;;;;-144.47;83.35;64684.34;4989658;28;20037;-65
2022/12/20 01:03:57;;;;;;;;;;;;;;;-144.47;83.37;64674.41;4991965;28;20026;-67
2022/12/20 01:06:24;;;;;;;17.42;7.45;;;;;;;-144.47;83.34;64726.22;4991849;28;20414;-66
2022/12/20 01:08:51;;;;;;;18.63;8.05;;;;;;;-144.47;83.22;64702.28;4991727;28;20023;-67
2022/12/20 01:11:21;;;;;;;23.83;8.95;;;;;;;-144.47;83.24;64670.41;4992054;28;20030;-67
2022/12/20 01:13:49;;;;;;;17.95;8.73;;;;;;;-144.47;83.07;64722.22;4991216;28;20037;-68
2022/12/20 01:16:27;;;;;;;20.08;8.18;;;;;;;-144.47;83.47;64722.22;4991438;28;20042;-68
2022/12/20 01:18:53;;;;;;;17.77;7.97;;;;;;;-144.47;83.57;64714.25;4990703;28;20713;-67
2022/12/20 01:21:20;;;;;;;18.10;8.50;;;;;;;-144.47;83.15;64706.28;4990417;28;20057;-66
2022/12/20 01:23:46;;;;;;;17.38;9.02;;;;;;;-144.47;82.89;64680.38;4991040;28;20546;-68
2022/12/20 01:26:14;;;;;;;17.77;8.75;;;;;;;-144.47;82.75;64704.28;4986962;28;20480;-68
2022/12/20 01:28:42;;;;;;;18.63;9.33;;;;;;;-144.47;82.69;64686.34;4981636;28;20084;-68
2022/12/20 01:31:09;;;;;;;17.88;8.45;;;;;;;-144.47;82.47;64706.28;4985409;28;20026;-65
2022/12/20 01:33:35;;;;;;;18.13;8.88;;;;;;;-144.47;82.43;64710.28;4991516;28;20073;-65
2022/12/20 01:36:04;;;;;;;18.92;7.95;;;;;;;-144.47;82.64;64700.31;4990934;28;20041;-68
2022/12/20 01:38:31;;;;;;;24.52;9.25;;;;;;;-144.47;82.76;64680.38;4989206;28;20043;-68
2022/12/20 01:40:57;;;;;;;18.75;9.05;;;;;;;-144.47;82.81;64714.25;4990013;28;20041;-64
2022/12/20 01:43:24;;;;;;;20.25;8.60;;;;;;;-144.47;82.51;64690.34;4991295;28;20384;-67
2022/12/20 01:45:51;;;;;;;23.48;9.45;;;;;;;-144.47;82.23;64678.38;4989916;28;20559;-68
2022/12/20 01:48:25;;;;;;;21.25;8.27;;;;;;;-144.47;82.02;64662.44;4988934;28;20022;-68
2022/12/20 01:50:52;;;;;;;18.38;8.70;;;;;;;-144.47;82.07;64668.41;4991171;28;20385;-68
2022/12/20 01:53:21;;;;;;;21.83;7.97;;;;;;;-144.47;81.90;64682.38;4991478;28;20026;-67
2022/12/20 01:55:47;;;;;;;17.50;8.18;;;;;;;-144.47;81.91;64680.38;4991063;28;20031;-67
2022/12/20 01:58:16;;;;;;;17.40;8.18;;;;;;;-144.47;81.75;64626.56;4989979;28;20566;-68
2022/12/20 02:00:42;;;;;;;17.90;8.00;;;;;;;-144.47;81.86;64664.44;4990886;28;20045;-68
2022/12/20 02:03:11;;;;;;;19.88;9.48;;;;;;;-144.47;82.15;64682.38;4990508;28;20034;-64
2022/12/20 02:05:44;;;;;;;20.20;8.45;;;;;;;-144.47;82.09;64658.44;4990325;28;20030;-67
2022/12/20 02:08:12;;;;;;;25.73;8.82;;;;;;;-144.47;82.12;64680.38;4990229;28;20022;-67
2022/12/20 02:11:00;;;;;;;23.42;8.88;;;;;;;-144.47;81.82;64648.47;4988522;28;20534;-67
2022/12/20 02:13:53;;;;;;;20.33;8.25;;;;;;;-144.47;82.04;64706.28;4990634;28;20077;-68
2022/12/20 02:16:25;;;;;;;21.13;9.02;;;;;;;-144.47;82.02;64696.31;4990464;28;20054;-67
2022/12/20 02:19:27;;;;;;;20.98;9.00;;;;;;;-144.47;81.97;64674.41;4989736;28;20492;-67
2022/12/20 02:22:12;;;;;;;17.60;7.93;;;;;;;-144.47;82.42;64682.38;4989246;28;20519;-65
2022/12/20 02:24:48;;;;;;;19.95;8.80;;;;;;;-144.47;82.84;64718.25;4990071;28;20030;-67
2022/12/20 02:27:26;;;;;;;19.52;8.20;;;;;;;-144.47;82.84;64662.44;4974054;28;20109;-69
2022/12/20 02:29:54;;;;;;;18.88;9.20;;;;;;;-144.47;83.16;64674.41;4980128;28;20030;-68
2022/12/20 02:32:25;;;;;;;21.30;8.83;;;;;;;-144.47;83.33;64692.34;4990756;28;20041;-68
2022/12/20 02:34:51;;;;;;;21.70;8.95;;;;;;;-144.47;83.31;64674.41;4989360;28;20018;-67
2022/12/20 02:37:17;;;;;;;20.20;8.50;;;;;;;-144.47;83.96;64684.34;4989397;28;20475;-66
2022/12/20 02:39:45;;;;;;;18.38;8.13;;;;;;;-144.47;84.82;64698.31;4985651;28;20034;-66
2022/12/20 02:42:14;;;;;;;27.05;10.40;;;;;;;-144.47;85.43;64706.28;4990656;28;20032;-66
2022/12/20 02:45:14;;;;;;;;;;;;;;;-144.47;85.73;64734.19;4990141;28;20034;-66
2022/12/20 02:47:52;;;;;;;19.63;8.27;;;;;;;-144.47;85.91;64732.19;4982517;28;20283;-67
2022/12/20 02:50:26;;;;;;;18.80;8.98;;;;;;;-144.47;86.50;64722.22;4989619;28;20142;-68
2022/12/20 02:52:52;;;;;;;20.70;8.88;;;;;;;-144.47;87.03;64750.13;4990064;28;20033;-68
2022/12/20 02:55:20;;;;;;;24.13;9.75;;;;;;;-144.47;87.54;64758.09;4989427;28;20034;-65
2022/12/20 02:57:58;;;;;;;21.57;10.00;;;;;;;-144.47;87.80;64790.00;4989216;28;20026;-66
2022/12/20 03:00:23;;;;;;;23.70;9.60;;;;;;;-144.47;87.99;64762.09;4989420;28;20268;-70
2022/12/20 03:05:43;;;;;;;23.45;10.38;;;;;;;-144.47;88.66;64784.00;4989926;28;20034;-67
2022/12/20 03:08:08;;;;;;;25.95;10.48;;;;;;;-144.47;89.31;64827.88;4989162;28;20102;-67
2022/12/20 03:10:34;;;;;;;26.08;10.77;;;;;;;-144.47;89.57;64793.97;4989094;28;20034;-68
2022/12/20 03:12:59;;;;;;;21.45;9.48;;;;;;;-144.47;89.47;64809.94;4989883;28;20030;-67
2022/12/20 03:15:24;;;;;;;23.00;9.82;;;;;;;-144.47;89.57;64833.84;4989292;28;20540;-68
2022/12/20 03:17:50;;;;;;;24.15;9.70;;;;;;;-144.47;89.65;64797.97;4988950;28;20509;-68
2022/12/20 03:20:15;;;;;;;28.58;11.15;;;;;;;-144.47;90.09;64805.94;4989088;28;20023;-65
2022/12/20 03:22:40;;;;;;;26.10;9.68;;;;;;;-144.47;90.35;64847.78;4988436;28;20048;-66
2022/12/20 03:25:06;;;;;;;23.45;8.95;;;;;;;-144.47;90.52;64825.88;4988678;28;20030;-67
2022/12/20 03:27:31;;;;;;;21.65;10.40;;;;;;;-144.47;91.17;64849.78;4983244;28;20512;-65
2022/12/20 03:29:57;;;;;;;24.08;10.50;;;;;;;-144.47;91.29;64837.81;4979367;28;20022;-67
2022/12/20 03:32:22;;;;;;;24.95;9.57;;;;;;;-144.47;91.64;64873.72;4989651;28;20085;-66
2022/12/20 03:34:47;;;;;;;20.00;9.27;;;;;;;-144.47;91.97;64901.63;4988821;28;20026;-68
2022/12/20 03:37:13;;;;;;;21.63;9.68;;;;;;;-144.47;92.38;64859.75;4990329;28;20121;-67
2022/12/20 03:39:38;;;;;;;23.98;9.85;;;;;;;-144.47;92.92;64905.59;4983018;28;20018;-66
2022/12/20 03:42:04;;;;;;;23.98;10.68;;;;;;;-144.47;93.45;64889.66;4989717;28;20371;-66
2022/12/20 03:44:29;;;;;;;25.48;9.50;;;;;;;-144.47;93.89;64901.63;4988708;28;20506;-66
2022/12/20 03:46:54;;;;;;;21.27;9.95;;;;;;;-144.47;93.92;64939.47;4990406;28;20030;-67
2022/12/20 03:49:20;;;;;;;25.88;10.80;;;;;;;-144.47;93.91;64941.47;4992571;28;20057;-67
2022/12/20 03:51:45;;;;;;;22.20;10.60;;;;;;;-144.47;94.32;64955.44;4993957;28;20022;-67
2022/12/20 03:54:11;;;;;;;25.40;10.50;;;;;;;-144.47;94.65;64983.34;4992827;28;20716;-64
2022/12/20 03:56:36;;;;;;;24.63;10.52;;;;;;;-144.47;94.51;64981.34;4992636;28;20408;-67
2022/12/20 03:59:01;;;;;;;28.45;10.68;;;;;;;-144.47;94.50;64997.28;4992697;28;20763;-66
2022/12/20 04:01:28;;;;;;;27.38;11.18;;;;;;;-144.47;94.26;65011.25;4993198;28;20022;-67
2022/12/20 04:03:54;;;;;;;28.73;9.93;;;;;;;-144.47;94.22;64977.34;4992245;28;20030;-68
2022/12/20 04:06:20;;;;;;;30.40;11.20;;;;;;;-144.47;93.99;65013.22;4990969;28;20022;-67
2022/12/20 04:08:46;;;;;;;22.45;10.55;;;;;;;-144.47;93.99;65003.25;4992262;28;20018;-67
2022/12/20 04:11:15;;;;;;;25.15;10.50;;;;;;;-144.47;94.30;65001.28;4992385;28;20038;-66
2022/12/20 04:13:40;;;;;;;29.05;10.45;;;;;;;-144.47;93.97;64995.28;4992859;28;20105;-63
2022/12/20 04:16:07;;;;;;;25.17;10.40;;;;;;;-144.47;93.66;65015.22;4993063;28;20109;-65
2022/12/20 04:18:32;;;;;;;24.80;11.15;;;;;;;-144.47;93.40;65011.25;4991652;28;20550;-68
2022/12/20 04:20:59;;;;;;;25.20;10.68;;;;;;;-144.47;93.26;65001.28;4990614;28;20026;-66
2022/12/20 04:23:24;;;;;;;27.67;11.32;;;;;;;-144.47;93.00;64985.31;4992676;28;20101;-66
2022/12/20 04:25:50;;;;;;;22.98;9.75;;;;;;;-144.47;93.53;64983.34;4991991;28;20109;-65
2022/12/20 04:28:15;;;;;;;22.60;10.02;;;;;;;-144.47;93.16;65001.28;4981822;28;20031;-68
2022/12/20 04:30:40;;;;;;;25.10;10.60;;;;;;;-144.47;93.37;65009.25;4987058;28;20030;-66
2022/12/20 04:33:06;;;;;;;28.08;11.10;;;;;;;-144.47;93.35;65015.22;4993672;28;20030;-67
2022/12/20 04:35:31;;;;;;;24.00;10.05;;;;;;;-144.47;93.43;64991.31;4992239;28;20081;-67
2022/12/20 04:37:57;;;;;;;22.55;10.65;;;;;;;-144.47;93.61;64999.28;4991578;28;20092;-66
2022/12/20 04:40:22;;;;;;;23.48;10.90;;;;;;;-144.47;94.02;65003.25;4987868;28;20123;-67
2022/12/20 04:42:47;;;;;;;21.80;10.98;;;;;;;-144.47;93.75;65039.16;4992725;28;20022;-65
2022/12/20 04:45:13;;;;;;;22.92;10.27;;;;;;;-144.47;93.89;65015.22;4992264;28;20026;-67
2022/12/20 04:47:38;;;;;;;19.55;9.80;;;;;;;-144.47;93.61;65023.19;4991642;28;20022;-66
2022/12/20 04:50:06;;;;;;;26.80;10.48;;;;;;;-144.47;93.68;65037.16;4991261;28;20217;-67
2022/12/20 04:55:15;;;;;;;20.70;9.32;;;;;;;-144.47;93.80;65041.13;4992216;28;20530;-68
2022/12/20 04:57:41;;;;;;;21.00;9.95;;;;;;;-144.47;93.46;65057.09;4991530;28;20030;-67
2022/12/20 05:00:07;;;;;;;24.05;11.18;;;;;;;-144.47;94.04;65059.06;4992084;28;20026;-67
2022/12/20 05:02:32;;;;;;;22.70;10.50;;;;;;;-144.47;93.83;65015.22;4993010;28;20345;-67
2022/12/20 05:04:58;;;;;;;21.38;9.68;;;;;;;-144.47;93.91;65025.19;4991569;28;20022;-66
2022/12/20 05:07:23;;;;;;;21.13;9.77;;;;;;;-144.47;94.01;65045.13;4990141;28;20026;-67
2022/12/20 05:09:48;;;;;;;20.25;9.65;;;;;;;-144.47;94.15;65043.13;4991847;28;20037;-66
2022/12/20 05:12:14;;;;;;;22.30;9.82;;;;;;;-144.47;93.91;65027.19;4991660;28;20023;-68
2022/12/20 05:14:39;;;;;;;20.40;9.30;;;;;;;-144.47;93.92;65067.06;4991585;28;20023;-67
2022/12/20 05:17:04;;;;;;;21.05;9.02;;;;;;;-144.47;94.05;65079.00;4990930;28;20034;-67
2022/12/20 05:19:30;;;;;;;19.08;9.40;;;;;;;-144.47;94.03;65057.09;4991472;28;20034;-67
2022/12/20 05:27:23;;;;;;;21.48;9.50;;;;;;;-144.47;93.73;65110.91;4979029;28;20097;-65
2022/12/20 05:29:48;;;;;;;20.60;9.15;;;;;;;-144.47;93.59;65053.09;4991642;28;20396;-67
2022/12/20 05:32:13;;;;;;;19.95;9.23;;;;;;;-144.47;93.39;65053.09;4991868;28;20118;-66
2022/12/20 05:34:39;;;;;;;20.38;9.35;;;;;;;-144.47;93.52;65079.00;4991696;28;20031;-68
2022/12/20 05:37:05;;;;;;;18.23;8.23;;;;;;;-144.47;93.52;65051.09;4991121;28;20061;-66
2022/12/20 05:39:31;;;;;;;17.85;8.75;;;;;;;-144.47;93.41;65083.00;4989263;28;20045;-68
2022/12/20 05:41:56;;;;;;;20.80;8.95;;;;;;;-144.47;93.51;65083.00;4986754;28;20038;-69
2022/12/20 05:44:21;;;;;;;20.13;9.45;;;;;;;-144.47;93.46;65037.16;4990973;28;20433;-69
2022/12/20 05:46:47;;;;;;;17.80;8.48;;;;;;;-144.47;93.22;65077.03;4989329;28;20022;-67
2022/12/20 05:49:12;;;;;;;22.10;9.27;;;;;;;-144.47;93.54;65049.13;4989855;28;20029;-67
2022/12/20 05:51:38;;;;;;;19.80;9.23;;;;;;;-144.47;93.60;65075.03;4991031;28;20034;-67
2022/12/20 05:54:03;;;;;;;17.92;8.70;;;;;;;-144.47;93.18;65083.00;4989857;28;20068;-68
2022/12/20 05:56:28;;;;;;;17.73;9.23;;;;;;;-144.47;93.06;65041.13;4990180;28;20476;-69
2022/12/20 05:58:53;;;;;;;22.20;8.82;;;;;;;-144.47;93.46;65061.06;4990141;28;20102;-66
2022/12/20 06:01:19;;;;;;;20.15;9.95;;;;;;;-144.47;93.36;65088.97;4990504;28;20058;-69
2022/12/20 06:03:44;;;;;;;23.60;10.13;;;;;;;-144.47;93.49;65081.00;4981692;28;20069;-69
2022/12/20 06:06:10;;;;;;;23.55;10.05;;;;;;;-144.47;93.86;65132.84;4985543;28;20486;-66
2022/12/20 06:08:35;;;;;;;19.90;9.93;;;;;;;-144.47;93.47;65092.97;4983869;28;20100;-68
2022/12/20 06:11:03;;;;;;;21.58;9.63;;;;;;;-144.47;93.51;65059.06;4989708;28;20485;-67
2022/12/20 06:13:29;;;;;;;24.42;9.25;;;;;;;-144.47;93.27;65094.97;4985234;28;20078;-67
2022/12/20 06:15:54;;;;;;;20.77;9.57;;;;;;;-144.47;93.21;65057.09;4990633;28;20065;-68
2022/12/20 06:18:20;;;;;;;19.35;8.77;;;;;;;-144.47;93.16;65090.97;4989386;28;20034;-69
2022/12/20 06:20:50;;;;;;;18.40;9.43;;;;;;;-144.47;92.99;65081.00;4989936;28;20403;-67
2022/12/20 06:23:15;;;;;;;18.95;8.80;;;;;;;-144.47;92.76;65055.09;4990911;28;20026;-70
2022/12/20 06:25:41;;;;;;;23.38;9.88;;;;;;;-144.47;92.73;65067.06;4986534;28;20033;-68
2022/12/20 06:28:06;;;;;;;21.08;10.02;;;;;;;-144.47;92.81;65075.03;4986864;28;20029;-70
2022/12/20 06:30:32;;;;;;;21.30;8.35;;;;;;;-144.47;92.90;65075.03;4986471;28;20141;-66
2022/12/20 06:32:58;;;;;;;19.98;9.32;;;;;;;-144.47;92.89;65067.06;4980362;28;20045;-68
2022/12/20 06:35:24;;;;;;;21.48;10.43;;;;;;;-144.47;92.76;65086.97;4989262;28;20488;-65
2022/12/20 06:37:49;;;;;;;30.67;10.05;;;;;;;-144.47;92.97;65077.03;4984932;28;20034;-69
2022/12/20 06:40:15;;;;;;;25.08;10.73;;;;;;;-144.47;92.67;65061.06;4986603;28;20033;-65
2022/12/20 06:42:40;;;;;;;22.73;9.70;;;;;;;-144.47;92.92;65055.09;4989745;28;20121;-67
2022/12/20 06:45:07;;;;;;;25.05;10.63;;;;;;;-144.47;93.46;65090.97;4990080;28;20101;-68
2022/12/20 06:47:32;;;;;;;20.58;9.02;;;;;;;-144.47;93.56;65085.00;4989581;28;20026;-68
2022/12/20 06:49:57;;;;;;;18.65;9.90;;;;;;;-144.47;93.68;65094.97;4989499;28;20041;-67
2022/12/20 06:52:23;;;;;;;19.08;9.93;;;;;;;-144.47;93.94;65124.84;4989409;28;20065;-66
2022/12/20 06:54:52;;;;;;;23.90;9.10;;;;;;;-144.47;93.49;65092.97;4990240;28;20109;-70
2022/12/20 06:57:18;;;;;;;29.80;10.18;;;;;;;-144.47;93.09;65063.06;4989687;28;20033;-66
2022/12/20 06:59:43;;;;;;;23.23;10.20;;;;;;;-144.47;92.99;65029.19;4987666;28;20726;-68
2022/12/20 07:02:11;;;;;;;26.35;10.27;;;;;;;-144.47;92.16;65033.16;4990292;28;20046;-68
2022/12/20 07:04:36;;;;;;;26.15;11.25;;;;;;;-144.47;91.94;65027.19;4988075;28;20096;-68
2022/12/20 07:07:02;;;;;;;25.27;9.80;;;;;;;-144.47;91.48;64993.31;4989281;28;20026;-68
2022/12/20 07:09:28;;;;;;;23.48;10.55;;;;;;;-144.47;90.92;65005.25;4989906;28;20058;-69
2022/12/20 07:11:54;;;;;;;22.98;9.98;;;;;;;-144.47;90.63;64961.41;4990208;28;20027;-67
2022/12/20 07:14:19;;;;;;;28.35;11.32;;;;;;;-144.47;90.50;64921.53;4988916;28;20113;-67
2022/12/20 07:16:45;;;;;;;25.13;11.07;;;;;;;-144.47;90.43;64869.72;4989362;28;20396;-68
2022/12/20 07:19:12;;;;;;;26.10;10.93;;;;;;;-144.47;90.58;64837.81;4989186;28;20073;-66
2022/12/20 07:21:37;;;;;;;26.92;10.45;;;;;;;-144.47;90.50;64738.16;4991984;28;20404;-67
2022/12/20 07:24:03;;;;;;;25.73;11.18;;;;;;;-144.47;90.32;64600.66;4996004;28;20037;-66
2022/12/20 07:26:28;;;;;;;24.23;10.68;;;;;;;-144.47;90.42;64538.88;4995611;28;20034;-67
2022/12/20 07:28:54;;;;;;;26.15;11.05;;;;;;;-144.47;90.03;64383.41;4986183;28;20054;-68
2022/12/20 07:31:19;;;;;;;24.48;10.55;;;;;;;-144.47;89.95;64231.97;4985318;28;20064;-67
2022/12/20 07:33:45;;;;;;;23.02;10.82;;;;;;;-144.47;89.46;64030.69;4987955;28;20030;-68
2022/12/20 07:36:11;;;;;;;29.70;10.88;;;;;;;-144.47;89.22;63889.22;4987883;28;20089;-65
2022/12/20 07:38:37;;;;;;;26.58;11.63;;;;;;;-144.47;89.01;63783.59;4984500;28;20042;-67
2022/12/20 07:41:12;;;;;;;32.05;12.23;;;;;;;-144.47;88.83;63566.44;4979586;28;20038;-66
2022/12/20 07:43:37;;;;;;;30.13;11.75;;;;;;;-144.47;88.62;63305.44;4980921;28;20034;-68
2022/12/20 07:46:04;;;;;;;29.75;10.98;;;;;;;-144.47;88.79;63074.34;4985434;28;20044;-67
2022/12/20 07:48:29;;;;;;;30.27;10.93;;;;;;;-144.47;88.88;62707.78;4978889;28;20039;-68
2022/12/20 07:50:59;;;;;;;23.42;11.45;;;;;;;-144.47;88.20;62391.09;4978670;28;20113;-69
2022/12/20 07:53:27;;;;;;;26.50;11.75;;;;;;;-144.47;88.15;62291.50;4979633;28;20015;-67
2022/12/20 07:55:54;;;;;;;27.92;11.55;;;;;;;-144.47;87.74;62229.78;4980772;28;20605;-67
2022/12/20 07:58:20;;;;;;;25.38;11.25;;;;;;;-144.47;87.24;62116.25;4980247;28;20038;-67
2022/12/20 08:00:46;;;;;;;24.88;12.05;;;;;;;-144.47;87.26;61962.91;4980973;28;20087;-66
2022/12/20 08:03:26;;;;;;;21.17;10.32;;;;;;;-144.47;87.16;61777.69;4976764;28;20030;-66
2022/12/20 08:05:57;;;;;;;28.80;13.70;;;;;;;-144.47;87.55;61508.88;4983295;28;20034;-66
2022/12/20 08:08:23;;;;;;;25.80;12.25;;;;;;;-144.47;87.27;61148.47;4977503;28;20116;-66
2022/12/20 08:10:49;;;;;;;25.73;12.10;;;;;;;-144.47;87.07;61108.66;4982741;28;20041;-67
2022/12/20 08:13:15;;;;;;;25.67;11.23;;;;;;;-144.47;87.20;61156.44;4981261;28;20038;-67
2022/12/20 08:15:41;;;;;;;30.92;12.10;;;;;;;-144.47;87.55;61088.75;4981677;28;20099;-69
2022/12/20 08:18:06;;;;;;;26.67;12.27;;;;;;;-144.47;87.71;61005.13;4981298;28;20043;-67
2022/12/20 08:20:32;;;;;;;28.35;12.15;;;;;;;-144.47;87.62;60925.50;4979853;28;20512;-67
2022/12/20 08:22:57;;;;;;;24.35;12.00;;;;;;;-144.47;88.09;60806.03;4980746;28;20022;-68
2022/12/20 08:25:23;;;;;;;27.65;11.50;;;;;;;-144.47;87.74;60804.06;4982661;28;20026;-69
2022/12/20 08:27:49;;;;;;;25.23;11.90;;;;;;;-144.47;87.86;60812.00;4978366;28;20515;-68
2022/12/20 08:30:14;;;;;;;24.58;11.93;;;;;;;-144.47;87.76;60829.94;4978612;28;20066;-66
2022/12/20 08:32:40;;;;;;;26.75;11.85;;;;;;;-144.47;87.79;60861.78;4977762;28;20030;-68
2022/12/20 08:35:06;;;;;;;29.17;12.38;;;;;;;-144.47;87.97;60851.81;4977461;28;20042;-66
2022/12/20 08:37:31;;;;;;;28.63;12.27;;;;;;;-144.47;88.21;60758.25;4973770;28;20133;-66
2022/12/20 08:39:57;;;;;;;26.95;12.23;;;;;;;-144.47;87.84;60690.56;4971391;28;20033;-66
2022/12/20 08:42:22;;;;;;;25.00;11.70;;;;;;;-144.47;87.54;60545.25;4976740;28;20113;-67
2022/12/20 08:44:48;;;;;;;25.10;11.18;;;;;;;-144.47;87.36;60469.59;4975440;28;20030;-67
2022/12/20 08:47:13;;;;;;;25.38;11.18;;;;;;;-144.47;87.27;60443.72;4971146;28;20030;-66
2022/12/20 08:49:38;;;;;;;30.20;10.88;;;;;;;-144.47;87.42;60405.91;4972573;28;20123;-70
2022/12/20 08:52:04;;;;;;;23.65;10.50;;;;;;;-144.47;87.42;60386.00;4976586;28;20405;-68
2022/12/20 08:54:29;;;;;;;27.15;11.68;;;;;;;-144.47;87.41;60431.78;4973848;28;20030;-67
2022/12/20 08:56:55;;;;;;;23.60;11.63;;;;;;;-144.47;87.07;60419.84;4976333;28;20235;-67
2022/12/20 08:59:20;;;;;;;23.50;11.43;;;;;;;-144.47;86.78;60409.88;4978428;28;20030;-67
2022/12/20 09:01:45;;;;;;;22.33;10.85;;;;;;;-144.47;86.97;60417.84;4979630;28;20547;-68
2022/12/20 09:04:11;;;;;;;26.10;11.07;;;;;;;-144.47;86.89;60417.84;4988103;28;20184;-68
2022/12/20 09:06:39;;;;;;;23.83;10.88;;;;;;;-144.47;86.21;60409.88;4981822;28;20112;-69
2022/12/20 09:09:05;;;;;;;23.63;11.37;;;;;;;-144.47;85.87;60431.78;4989163;28;20022;-66
2022/12/20 09:11:31;;;;;;;24.55;10.77;;;;;;;-144.47;86.11;60429.78;4991086;28;20264;-68
2022/12/20 09:13:58;;;;;;;30.85;11.02;;;;;;;-144.47;86.16;60435.78;4990481;28;20045;-69
2022/12/20 09:16:29;;;;;;;31.20;11.05;;;;;;;-144.47;85.92;60415.88;4991217;28;20030;-70
2022/12/20 09:18:56;;;;;;;25.15;11.73;;;;;;;-144.47;86.12;60417.84;4987596;28;20022;-66
2022/12/20 09:21:22;;;;;;;25.83;12.30;;;;;;;-144.47;86.01;60435.78;4991048;28;20029;-68
2022/12/20 09:23:51;;;;;;;21.13;10.13;;;;;;;-144.47;86.12;60368.09;4990603;28;20034;-67
2022/12/20 09:26:18;;;;;;;25.27;11.60;;;;;;;-144.47;85.76;60308.38;4990408;28;20026;-67
2022/12/20 09:28:44;;;;;;;29.02;12.23;;;;;;;-144.47;86.10;60228.75;4981640;28;20033;-69
2022/12/20 09:31:12;;;;;;;25.95;12.15;;;;;;;-144.47;86.00;60151.13;4991761;28;20054;-69
2022/12/20 09:33:38;;;;;;;25.67;11.70;;;;;;;-144.47;85.58;60079.47;4990909;28;20030;-69
2022/12/20 09:36:04;;;;;;;28.10;12.60;;;;;;;-144.47;85.73;60089.44;4991528;28;20041;-70
2022/12/20 09:38:31;;;;;;;29.85;12.77;;;;;;;-144.47;85.88;60091.41;4986046;28;20058;-71
2022/12/20 09:40:59;;;;;;;27.85;13.68;;;;;;;-144.47;85.55;60145.16;4990794;28;20037;-65
2022/12/20 09:43:26;;;;;;;24.67;11.50;;;;;;;-144.47;85.95;60175.00;4991260;28;20038;-65
2022/12/20 09:45:55;;;;;;;27.52;11.07;;;;;;;-144.47;85.74;60218.81;4980208;28;20049;-69
2022/12/20 09:48:29;;;;;;;25.20;12.32;;;;;;;-144.47;86.10;60236.72;4990386;28;20030;-69
2022/12/20 09:51:09;;;;;;;21.65;10.57;;;;;;;-144.47;86.38;60220.78;4990935;28;20022;-69
2022/12/20 09:53:58;;;;;;;23.80;11.13;;;;;;;-144.47;86.39;60179.00;4991189;28;20029;-68
2022/12/20 09:56:29;;;;;;;20.42;10.15;;;;;;;-144.47;85.89;60121.28;4985135;28;20500;-68
2022/12/20 09:59:05;;;;;;;24.40;12.07;;;;;;;-144.47;85.15;60065.53;4989492;28;20077;-68
2022/12/20 10:01:33;;;;;;;23.50;10.70;;;;;;;-144.47;84.50;60121.28;4991848;28;20034;-66
2022/12/20 10:04:03;;;;;;;22.08;10.30;;;;;;;-144.47;83.96;60173.03;4990136;28;20622;-69
2022/12/20 10:06:36;;;;;;;25.08;11.00;;;;;;;-144.47;83.54;60157.09;4990743;28;20050;-68
2022/12/20 10:09:08;;;;;;;25.05;9.82;;;;;;;-144.47;82.48;60157.09;4990022;28;20109;-69
2022/12/20 10:11:53;;;;;;;18.08;9.32;;;;;;;-144.47;81.72;60161.06;4991146;28;20038;-68
2022/12/20 10:14:43;;;;;;;21.98;10.15;;;;;;;-144.47;81.40;60145.16;4988281;28;20424;-70
2022/12/20 10:17:30;;;;;;;24.52;10.27;;;;;;;-144.47;81.49;60085.44;4989158;28;20065;-71
2022/12/20 10:19:55;;;;;;;26.77;10.32;;;;;;;-144.47;81.27;59997.88;4982801;28;20034;-67
2022/12/20 10:22:37;;;;;;;22.67;9.68;;;;;;;-144.47;81.10;59952.09;4991141;28;20036;-70
2022/12/20 10:25:18;;;;;;;21.25;10.40;;;;;;;-144.47;80.00;60005.81;4990415;28;20164;-70
2022/12/20 10:27:46;;;;;;;21.38;9.68;;;;;;;-144.47;80.11;60073.50;4989465;28;20038;-68
2022/12/20 10:30:18;;;;;;;19.73;9.52;;;;;;;-144.47;79.57;60105.34;4981088;28;20109;-67
2022/12/20 10:32:45;;;;;;;20.15;9.90;;;;;;;-144.47;79.04;60171.03;4989761;28;20110;-68
2022/12/20 10:35:10;;;;;;;22.83;9.98;;;;;;;-144.47;79.23;60165.06;4988951;28;20508;-69
2022/12/20 10:37:37;;;;;;;22.15;8.95;;;;;;;-144.47;78.87;60077.47;4989432;28;20030;-66
2022/12/20 10:40:03;;;;;;;21.35;9.65;;;;;;;-144.47;78.79;60047.63;4990106;28;20022;-66
2022/12/20 10:42:39;;;;;;;19.38;9.70;;;;;;;-144.47;77.92;60033.69;4990484;28;20058;-68
2022/12/20 10:45:33;;;;;;;16.70;8.75;;;;;;;-144.47;77.32;59991.91;4990275;28;20105;-67
2022/12/20 10:48:01;;;;;;;20.85;8.63;;;;;;;-144.47;77.00;59966.03;4981908;28;20033;-68
2022/12/20 10:50:26;;;;;;;22.48;8.30;;;;;;;-144.47;77.10;59964.03;4990610;28;20022;-67
2022/12/20 10:53:23;;;;;;;20.67;8.73;;;;;;;-144.47;76.50;59948.09;4990885;28;20373;-69
2022/12/20 10:55:50;;;;;;;20.25;9.30;;;;;;;-144.47;76.43;59934.19;4981061;28;20038;-66
2022/12/20 10:58:26;;;;;;;16.40;8.18;;;;;;;-144.47;76.17;59987.91;4988120;28;20030;-69
2022/12/20 11:01:11;;;;;;;17.58;9.25;;;;;;;-144.47;75.74;60001.84;4990077;28;20443;-69
2022/12/20 11:04:01;;;;;;;21.50;9.05;;;;;;;-144.47;75.87;59981.94;4989510;28;20023;-69
2022/12/20 11:06:47;;;;;;;18.30;8.73;;;;;;;-144.47;75.93;59918.25;4989225;28;20100;-67
2022/12/20 11:09:18;;;;;;;20.85;9.30;;;;;;;-144.47;75.50;59890.38;4987644;28;20037;-69
2022/12/20 11:12:12;;;;;;;20.65;8.70;;;;;;;-144.47;74.73;59962.03;4990085;28;20057;-69
2022/12/20 11:14:38;;;;;;;19.75;8.73;;;;;;;-144.47;75.31;59960.06;4988982;28;20506;-68
2022/12/20 11:17:15;;;;;;;19.33;9.10;;;;;;;-144.47;75.29;59975.97;4989251;28;20049;-66
2022/12/20 11:20:15;;;;;;;21.60;8.70;;;;;;;-144.47;74.98;60053.59;4986859;28;20110;-68
2022/12/20 11:23:00;;;;;;;16.05;7.78;;;;;;;-144.47;75.18;60013.78;4986089;28;20097;-68